Time;durP1;ratioP1;P1;durP2;ratioP2;P2;SDS_P1;SDS_P2;PMS_P1;PMS_P2;Temp;Humidity;BMP_temperature;BMP_pressure;BME280_temperature;BME280_humidity;BME280_pressure;Samples;Min_cycle;Max_cycle;Signal;HPM_P1;HPM_P2
2022/06/03 00:00:53;;;;;;;14.65;6.50;;;;;;;16.32;72.05;101461.03;7387766;19;20106;-67
2022/06/03 00:03:44;;;;;;;13.10;8.38;;;;;;;16.32;72.09;101463.69;7387772;19;20007;-68
2022/06/03 00:06:55;;;;;;;12.45;6.70;;;;;;;16.34;72.20;101467.00;7387399;19;20025;-66
2022/06/03 00:09:47;;;;;;;12.80;7.13;;;;;;;16.32;72.37;101461.88;7379706;19;20016;-67
2022/06/03 00:12:59;;;;;;;12.85;6.07;;;;;;;16.29;72.51;101462.22;7378244;19;20007;-65
2022/06/03 00:15:47;;;;;;;9.55;5.80;;;;;;;16.29;72.25;101445.47;7385180;19;20033;-67
2022/06/03 00:18:26;;;;;;;8.35;5.53;;;;;;;16.30;72.50;101453.25;7388438;19;20006;-69
2022/06/03 00:21:04;;;;;;;10.77;5.25;;;;;;;16.26;72.29;101446.63;7385791;19;20023;-67
2022/06/03 00:23:46;;;;;;;7.68;5.32;;;;;;;16.22;72.32;101440.00;7387045;19;20018;-67
2022/06/03 00:26:27;;;;;;;8.20;5.28;;;;;;;16.18;72.53;101444.03;7387595;19;20468;-68
2022/06/03 00:28:53;;;;;;;12.73;5.75;;;;;;;16.12;73.90;101440.22;7387750;19;20539;-68
2022/06/03 00:31:57;;;;;;;9.75;5.65;;;;;;;16.10;73.29;101436.13;7387209;19;20003;-66
2022/06/03 00:34:33;;;;;;;9.73;5.53;;;;;;;16.12;73.08;101442.88;7387557;19;20040;-66
2022/06/03 00:37:28;;;;;;;10.25;6.07;;;;;;;16.08;73.02;101444.25;7386992;19;20032;-70
2022/06/03 00:40:09;;;;;;;9.07;5.18;;;;;;;16.05;72.96;101425.19;7383992;19;20011;-69
2022/06/03 00:43:05;;;;;;;14.05;5.65;;;;;;;15.98;73.05;101433.00;7386109;19;20121;-67
2022/06/03 00:45:55;;;;;;;8.70;5.63;;;;;;;15.93;73.31;101429.22;7387662;19;20499;-70
2022/06/03 00:48:31;;;;;;;11.27;6.50;;;;;;;15.85;73.74;101432.72;7386938;19;20021;-67
2022/06/03 00:51:23;;;;;;;14.07;5.88;;;;;;;15.81;73.96;101436.72;7388908;19;20006;-70
2022/06/03 00:54:05;;;;;;;15.43;9.60;;;;;;;15.76;74.65;101431.94;7387009;19;20509;-69
2022/06/03 00:56:47;;;;;;;12.60;5.78;;;;;;;15.77;75.13;101433.59;7384698;19;20404;-67
2022/06/03 00:59:44;;;;;;;10.55;5.18;;;;;;;15.73;74.49;101426.97;7388536;19;20504;-67
2022/06/03 01:02:28;;;;;;;9.90;4.68;;;;;;;15.73;74.14;101437.59;7387145;19;20035;-68
2022/06/03 01:05:25;;;;;;;7.40;4.68;;;;;;;15.75;73.90;101432.09;7388771;19;20023;-66
2022/06/03 01:07:58;;;;;;;10.95;4.93;;;;;;;15.70;73.87;101435.25;7384613;19;20078;-69
2022/06/03 01:10:37;;;;;;;11.32;5.07;;;;;;;15.69;74.23;101432.81;7386985;19;20102;-67
2022/06/03 01:13:19;;;;;;;8.45;3.90;;;;;;;15.66;74.34;101439.25;7384039;19;20045;-68
2022/06/03 01:16:13;;;;;;;9.40;4.80;;;;;;;15.62;74.55;101437.94;7386643;19;20023;-67
2022/06/03 01:18:50;;;;;;;9.15;4.90;;;;;;;15.62;74.33;101429.16;7386647;19;20014;-67
2022/06/03 01:21:39;;;;;;;8.07;4.82;;;;;;;15.61;74.55;101428.34;7386279;19;20043;-67
2022/06/03 01:24:47;;;;;;;15.18;5.68;;;;;;;15.61;74.69;101433.63;7386958;19;20007;-67
2022/06/03 01:27:38;;;;;;;11.52;4.82;;;;;;;15.64;74.25;101427.19;7386635;19;20015;-68
2022/06/03 01:30:16;;;;;;;8.77;4.78;;;;;;;15.62;74.22;101421.19;7385077;19;20023;-68
2022/06/03 01:33:20;;;;;;;9.05;4.43;;;;;;;15.61;74.74;101414.22;7387212;19;20010;-68
2022/06/03 01:36:06;;;;;;;8.55;4.65;;;;;;;15.57;74.55;101410.28;7385852;19;20028;-68
2022/06/03 01:38:52;;;;;;;8.23;4.50;;;;;;;15.55;74.77;101413.09;7385207;19;20007;-67
2022/06/03 01:41:37;;;;;;;6.75;3.83;;;;;;;15.52;74.39;101408.13;7388208;19;20003;-68
2022/06/03 01:44:07;;;;;;;8.77;3.85;;;;;;;15.51;74.69;101406.47;7388836;19;20128;-68
2022/06/03 01:46:58;;;;;;;8.40;4.07;;;;;;;15.50;74.80;101401.31;7385276;19;20115;-67
2022/06/03 01:50:10;;;;;;;9.90;4.18;;;;;;;15.49;74.69;101399.69;7385691;19;20006;-67
2022/06/03 01:53:13;;;;;;;8.45;4.65;;;;;;;15.48;75.20;101398.00;7385372;19;20476;-68
2022/06/03 01:56:17;;;;;;;8.95;3.90;;;;;;;15.45;75.04;101396.50;7384817;19;20639;-67
2022/06/03 01:59:02;;;;;;;;;;;;;;;15.40;74.98;101391.72;7384991;19;20082;-68
2022/06/03 02:02:06;;;;;;;5.68;3.65;;;;;;;15.39;75.27;101395.38;7384218;19;19918;-69
2022/06/03 02:05:11;;;;;;;7.65;3.60;;;;;;;15.36;75.05;101386.94;7385786;19;20359;-70
2022/06/03 02:08:03;;;;;;;7.80;4.55;;;;;;;15.33;75.64;101390.75;7386251;19;20010;-69
2022/06/03 02:10:53;;;;;;;8.27;3.95;;;;;;;15.29;75.28;101389.44;7386182;19;20618;-67
2022/06/03 02:13:46;;;;;;;7.88;3.88;;;;;;;15.28;75.18;101382.50;7380975;19;20466;-66
2022/06/03 02:16:50;;;;;;;6.55;3.45;;;;;;;15.28;75.11;101381.66;7386143;19;20551;-67
2022/06/03 02:19:47;;;;;;;8.65;3.47;;;;;;;15.24;75.04;101370.53;7382770;19;20015;-68
2022/06/03 02:22:52;;;;;;;7.93;3.92;;;;;;;15.15;75.27;101373.38;7385540;19;20029;-67
2022/06/03 02:25:28;;;;;;;8.50;4.13;;;;;;;15.02;75.59;101367.78;7382537;19;20003;-69
2022/06/03 02:28:26;;;;;;;7.10;3.72;;;;;;;14.91;76.01;101361.00;7386600;19;20085;-69
2022/06/03 02:31:14;;;;;;;9.52;3.80;;;;;;;14.85;76.42;101362.50;7386856;19;20577;-69
2022/06/03 02:34:02;;;;;;;7.47;4.72;;;;;;;14.83;76.33;101366.34;7383661;19;20048;-67
2022/06/03 02:37:06;;;;;;;8.98;4.00;;;;;;;14.78;76.53;101352.75;7379727;19;20006;-67
2022/06/03 02:40:04;;;;;;;8.00;4.18;;;;;;;14.77;76.74;101348.44;7380151;19;20329;-68
2022/06/03 02:43:07;;;;;;;9.25;4.35;;;;;;;14.74;76.45;101341.66;7383627;19;20010;-68
2022/06/03 02:46:06;;;;;;;7.60;4.63;;;;;;;14.70;76.36;101345.63;7383811;19;20491;-67
2022/06/03 02:49:05;;;;;;;5.65;3.50;;;;;;;14.64;76.74;101346.28;7380083;19;20075;-68
2022/06/03 02:52:01;;;;;;;9.90;4.18;;;;;;;14.61;76.82;101348.47;7386169;19;20014;-67
2022/06/03 02:54:46;;;;;;;5.88;3.95;;;;;;;14.57;76.89;101344.50;7383303;19;20018;-66
2022/06/03 02:58:02;;;;;;;8.45;4.65;;;;;;;14.50;77.45;101341.66;7384039;19;20021;-68
2022/06/03 03:00:47;;;;;;;9.70;4.32;;;;;;;14.47;77.72;101337.53;7379059;19;20486;-66
2022/06/03 03:03:30;;;;;;;9.98;4.35;;;;;;;14.43;77.83;101336.19;7381145;19;20031;-67
2022/06/03 03:06:24;;;;;;;11.55;5.05;;;;;;;14.45;77.79;101336.03;7384081;19;20082;-69
2022/06/03 03:09:22;;;;;;;8.45;4.45;;;;;;;14.44;77.51;101326.44;7383967;19;20490;-67
2022/06/03 03:11:56;;;;;;;10.30;4.97;;;;;;;14.36;77.88;101314.03;7378843;19;20014;-67
2022/06/03 03:14:34;;;;;;;9.55;4.40;;;;;;;14.41;77.86;101313.53;7382042;19;20098;-68
2022/06/03 03:17:18;;;;;;;7.55;3.95;;;;;;;14.43;77.71;101311.53;7384088;19;20082;-67
2022/06/03 03:20:13;;;;;;;9.65;4.47;;;;;;;14.38;78.07;101314.69;7384079;19;20032;-69
2022/06/03 03:22:48;;;;;;;8.65;4.47;;;;;;;14.41;77.76;101316.19;7381917;19;20119;-69
2022/06/03 03:25:37;;;;;;;9.38;4.55;;;;;;;14.43;77.90;101312.38;7384667;19;20015;-68
2022/06/03 03:28:25;;;;;;;12.27;4.03;;;;;;;14.43;77.89;101307.06;7380951;19;20397;-67
2022/06/03 03:31:14;;;;;;;9.30;4.97;;;;;;;14.46;77.84;101311.22;7384152;19;20437;-68
2022/06/03 03:34:01;;;;;;;10.77;3.92;;;;;;;14.44;77.74;101311.38;7381372;19;20340;-69
2022/06/03 03:37:02;;;;;;;11.15;4.65;;;;;;;14.49;77.92;101321.47;7382713;19;20319;-66
2022/06/03 03:39:48;;;;;;;10.73;3.90;;;;;;;14.53;77.33;101323.63;7383136;19;20014;-68
2022/06/03 03:42:54;;;;;;;9.75;4.25;;;;;;;14.51;77.26;101319.50;7379539;19;20441;-68
2022/06/03 03:45:43;;;;;;;7.43;3.97;;;;;;;14.51;77.00;101307.09;7379732;19;20377;-69
2022/06/03 03:48:25;;;;;;;7.50;3.42;;;;;;;14.50;76.97;101301.94;7380102;19;20077;-67
2022/06/03 03:51:07;;;;;;;11.07;3.93;;;;;;;14.51;77.35;101311.56;7382516;19;20017;-69
2022/06/03 03:54:17;;;;;;;7.40;3.67;;;;;;;14.54;77.21;101319.97;7380575;19;20007;-69
2022/06/03 03:57:16;;;;;;;9.80;3.45;;;;;;;14.54;76.87;101311.22;7382403;19;20006;-69
2022/06/03 04:00:16;;;;;;;8.93;4.32;;;;;;;14.51;76.81;101311.56;7382928;19;20022;-69
2022/06/03 04:03:05;;;;;;;9.23;3.80;;;;;;;14.55;76.94;101302.28;7382115;19;20039;-67
2022/06/03 04:05:35;;;;;;;13.73;5.05;;;;;;;14.54;77.19;101300.63;7377452;19;20197;-68
2022/06/03 04:08:29;;;;;;;7.55;3.78;;;;;;;14.52;77.40;101295.50;7382052;19;20018;-68
2022/06/03 04:11:34;;;;;;;10.60;4.72;;;;;;;14.51;77.33;101295.66;7381750;19;20017;-68
2022/06/03 04:14:35;;;;;;;7.55;4.13;;;;;;;14.48;77.36;101282.75;7381224;19;20028;-67
2022/06/03 04:17:32;;;;;;;9.73;3.95;;;;;;;14.48;77.51;101282.75;7384671;19;20033;-69
2022/06/03 04:24:12;;;;;;;7.40;3.60;;;;;;;14.55;77.82;101283.72;7389518;19;20006;-65
2022/06/03 04:27:10;;;;;;;6.15;3.45;;;;;;;14.58;77.33;101287.88;7388753;19;20492;-66
2022/06/03 04:30:07;;;;;;;9.63;3.72;;;;;;;14.59;77.33;101292.16;7387900;19;20006;-66
2022/06/03 04:32:46;;;;;;;7.13;3.30;;;;;;;14.61;77.28;101288.38;7388184;19;20019;-67
2022/06/03 04:35:41;;;;;;;7.93;4.43;;;;;;;14.61;77.65;101293.66;7387287;19;20006;-69
2022/06/03 04:38:39;;;;;;;7.10;3.50;;;;;;;14.61;77.44;101293.66;7390299;19;20037;-70
2022/06/03 04:41:45;;;;;;;6.78;2.90;;;;;;;14.62;77.42;101299.78;7388447;19;20484;-66
2022/06/03 04:44:39;;;;;;;9.50;3.40;;;;;;;14.65;77.17;101302.09;7389953;19;20114;-66
2022/06/03 04:47:51;;;;;;;7.57;3.03;;;;;;;14.64;77.39;101314.50;7387153;19;20011;-68
2022/06/03 04:50:27;;;;;;;9.43;3.40;;;;;;;14.65;77.35;101318.00;7387061;19;20002;-67
2022/06/03 04:53:21;;;;;;;8.18;2.72;;;;;;;14.66;77.83;101306.41;7389808;19;20011;-67
2022/06/03 04:55:48;;;;;;;11.27;3.05;;;;;;;14.64;77.60;101309.22;7384253;19;20451;-66
2022/06/03 04:58:46;;;;;;;9.52;2.90;;;;;;;14.68;77.67;101318.47;7385805;19;20010;-68
2022/06/03 05:01:41;;;;;;;6.60;3.33;;;;;;;14.65;77.79;101307.41;7383566;19;20018;-67
2022/06/03 05:04:38;;;;;;;7.10;3.00;;;;;;;14.68;77.85;101317.66;7386181;19;20014;-69
2022/06/03 05:07:30;;;;;;;9.50;3.88;;;;;;;14.69;77.89;101311.34;7385130;19;20014;-67
2022/06/03 05:10:30;;;;;;;7.95;3.20;;;;;;;14.71;77.93;101309.38;7384262;19;20476;-67
2022/06/03 05:13:03;;;;;;;8.35;2.97;;;;;;;14.72;78.22;101306.56;7382738;19;20082;-66
2022/06/03 05:15:51;;;;;;;7.63;3.20;;;;;;;14.72;78.39;101303.91;7384926;19;20021;-67
2022/06/03 05:18:36;;;;;;;6.18;3.63;;;;;;;14.78;78.42;101307.72;7386127;19;20081;-69
2022/06/03 05:21:32;;;;;;;8.07;3.75;;;;;;;14.84;78.85;101307.84;7384867;19;20098;-68
2022/06/03 05:24:13;;;;;;;10.07;3.75;;;;;;;14.91;78.33;101300.91;7383963;19;20018;-67
2022/06/03 05:26:52;;;;;;;7.80;3.35;;;;;;;14.94;78.27;101308.50;7386585;19;20010;-65
2022/06/03 05:29:43;;;;;;;8.70;3.25;;;;;;;15.02;78.39;101310.31;7385251;19;20025;-66
2022/06/03 05:32:10;;;;;;;9.63;3.55;;;;;;;15.04;78.69;101312.78;7388110;19;20033;-67
2022/06/03 05:35:15;;;;;;;9.57;6.25;;;;;;;15.12;79.00;101320.72;7386281;19;20014;-67
2022/06/03 05:37:58;;;;;;;7.38;3.63;;;;;;;15.18;79.07;101318.22;7387934;19;20010;-65
2022/06/03 05:41:03;;;;;;;8.98;3.53;;;;;;;15.27;78.31;101325.16;7385094;19;20006;-69
2022/06/03 05:44:21;;;;;;;8.35;3.28;;;;;;;15.27;78.50;101333.09;7386716;19;20010;-67
2022/06/03 05:47:15;;;;;;;8.38;3.15;;;;;;;15.25;79.09;101327.13;7386342;19;20026;-66
2022/06/03 05:49:51;;;;;;;8.45;3.60;;;;;;;15.24;79.40;101325.47;7381949;19;20370;-68
2022/06/03 05:52:24;;;;;;;8.48;3.90;;;;;;;15.28;80.10;101320.69;7385063;19;20019;-66
2022/06/03 05:54:57;;;;;;;8.27;3.40;;;;;;;15.29;80.31;101331.09;7383918;19;20337;-68
2022/06/03 05:57:34;;;;;;;;;;;;;;;15.31;80.26;101321.16;7387087;19;20010;-68
2022/06/03 06:00:32;;;;;;;6.20;3.00;;;;;;;15.31;80.09;101339.72;7385087;19;19925;-68
2022/06/03 06:03:33;;;;;;;8.57;3.40;;;;;;;15.32;79.94;101336.06;7381856;19;20010;-67
2022/06/03 06:06:12;;;;;;;10.52;3.80;;;;;;;15.34;80.10;101326.09;7386687;19;20015;-67
2022/06/03 06:09:03;;;;;;;8.32;3.75;;;;;;;15.37;80.29;101332.91;7382913;19;20744;-68
2022/06/03 06:11:57;;;;;;;8.48;3.17;;;;;;;15.42;79.43;101325.25;7384412;19;20021;-68
2022/06/03 06:14:33;;;;;;;7.80;3.20;;;;;;;15.46;79.37;101331.03;7379569;19;20010;-67
2022/06/03 06:17:31;;;;;;;12.93;3.85;;;;;;;15.52;79.01;101333.03;7382343;19;20014;-67
2022/06/03 06:20:15;;;;;;;7.78;3.03;;;;;;;15.53;79.44;101329.41;7384070;19;20006;-66
2022/06/03 06:22:48;;;;;;;8.25;3.55;;;;;;;15.57;79.88;101331.53;7385442;19;20106;-67
2022/06/03 06:25:28;;;;;;;10.55;3.72;;;;;;;15.63;79.68;101333.50;7382116;19;20019;-68
2022/06/03 06:27:58;;;;;;;9.65;3.75;;;;;;;15.70;79.39;101336.25;7384221;19;20015;-68
2022/06/03 06:30:44;;;;;;;10.93;3.40;;;;;;;15.73;79.04;101334.09;7387552;19;20446;-67
2022/06/03 06:33:22;;;;;;;8.88;3.33;;;;;;;15.82;78.14;101334.88;7385255;19;20007;-67
2022/06/03 06:36:07;;;;;;;7.65;3.60;;;;;;;15.89;78.00;101337.66;7384779;19;20018;-68
2022/06/03 06:39:22;;;;;;;9.60;3.58;;;;;;;15.93;77.70;101333.66;7384589;19;20497;-69
2022/06/03 06:42:08;;;;;;;8.75;4.07;;;;;;;15.88;77.76;101317.44;7380877;19;20009;-67
2022/06/03 06:44:50;;;;;;;7.50;3.60;;;;;;;15.84;78.18;101324.94;7381164;19;20003;-68
2022/06/03 06:47:44;;;;;;;8.90;3.50;;;;;;;15.83;78.49;101321.44;7384270;19;20015;-68
2022/06/03 06:50:17;;;;;;;11.70;4.57;;;;;;;15.90;77.83;101315.44;7384219;19;20011;-67
2022/06/03 06:53:02;;;;;;;10.57;3.78;;;;;;;15.89;78.15;101311.97;7385634;19;20021;-67
2022/06/03 06:55:54;;;;;;;9.32;3.72;;;;;;;15.90;78.42;101318.09;7382107;19;20133;-68
2022/06/03 06:58:21;;;;;;;9.52;3.88;;;;;;;15.90;78.69;101324.19;7382139;19;20017;-69
2022/06/03 07:00:50;;;;;;;6.35;3.10;;;;;;;15.90;78.93;101329.50;7383765;19;20010;-69
2022/06/03 07:03:52;;;;;;;12.85;3.53;;;;;;;15.95;79.28;101326.34;7383604;19;20022;-66
2022/06/03 07:06:43;;;;;;;18.52;3.80;;;;;;;16.04;79.13;101330.59;7383561;19;20036;-67
2022/06/03 07:09:10;;;;;;;7.82;3.25;;;;;;;16.09;79.01;101336.22;7385741;19;20034;-67
2022/06/03 07:11:55;;;;;;;19.10;3.92;;;;;;;16.16;79.39;101331.84;7383568;19;20373;-69
2022/06/03 07:14:28;;;;;;;17.63;4.45;;;;;;;16.21;78.93;101329.47;7383053;19;20344;-68
2022/06/03 07:20:23;;;;;;;11.10;3.83;;;;;;;16.35;78.28;101328.72;7381861;19;20013;-67
2022/06/03 07:22:58;;;;;;;8.23;2.80;;;;;;;16.47;77.50;101316.66;7384538;19;20397;-68
2022/06/03 07:25:35;;;;;;;9.65;3.97;;;;;;;16.56;77.24;101320.06;7383014;19;20038;-68
2022/06/03 07:28:14;;;;;;;10.02;3.92;;;;;;;16.67;76.52;101315.19;7380713;19;20014;-68
2022/06/03 07:30:49;;;;;;;8.30;3.03;;;;;;;16.68;76.35;101318.66;7383622;19;20006;-66
2022/06/03 07:33:33;;;;;;;9.15;3.45;;;;;;;16.74;76.30;101320.59;7382610;19;20019;-67
2022/06/03 07:36:39;;;;;;;8.73;3.30;;;;;;;16.81;76.63;101310.88;7384796;19;20006;-68
2022/06/03 07:39:21;;;;;;;9.50;4.63;;;;;;;16.98;76.43;101307.06;7382584;19;20025;-68
2022/06/03 07:42:19;;;;;;;8.55;3.53;;;;;;;17.32;74.83;101314.47;7382018;19;20023;-67
2022/06/03 07:45:29;;;;;;;11.07;3.40;;;;;;;17.71;73.85;101306.22;7385206;19;20018;-67
2022/06/03 07:48:06;;;;;;;9.90;3.90;;;;;;;17.98;72.98;101315.28;7380703;19;20018;-67
2022/06/03 07:50:36;;;;;;;;;;;;;;;18.07;71.88;101316.84;7392191;19;20082;-67
2022/06/03 07:53:17;;;;;;;6.68;3.15;;;;;;;18.13;70.71;101315.25;7391098;19;19975;-67
2022/06/03 07:55:52;;;;;;;7.30;3.20;;;;;;;18.06;71.03;101312.50;7391386;19;20014;-67
2022/06/03 07:58:24;;;;;;;5.75;2.90;;;;;;;18.01;71.23;101316.75;7391605;19;20439;-68
2022/06/03 08:00:52;;;;;;;7.90;3.58;;;;;;;17.94;72.69;101306.84;7387961;19;20039;-69
2022/06/03 08:03:26;;;;;;;12.50;3.28;;;;;;;17.90;72.48;101305.59;7389867;19;20025;-67
2022/06/03 08:06:00;;;;;;;9.50;3.72;;;;;;;17.84;72.08;101300.19;7390135;19;20464;-67
2022/06/03 08:11:17;;;;;;;9.88;4.22;;;;;;;17.87;71.77;101295.34;7389639;19;20866;-67
2022/06/03 08:13:50;;;;;;;6.63;3.40;;;;;;;17.84;71.60;101289.53;7387061;19;20017;-68
2022/06/03 08:16:17;;;;;;;;;;;;;;;17.84;71.80;101292.19;7389484;19;20021;-68
2022/06/03 08:18:44;;;;;;;8.00;3.75;;;;;;;17.81;72.45;101295.25;7386320;19;20321;-69
2022/06/03 08:21:35;;;;;;;9.63;3.95;;;;;;;17.89;72.45;101292.47;7386528;19;20014;-66
2022/06/03 08:24:06;;;;;;;7.85;3.55;;;;;;;18.07;70.53;101292.88;7387194;19;20497;-67
2022/06/03 08:26:34;;;;;;;9.90;3.80;;;;;;;18.08;70.90;101291.03;7389346;19;20021;-67
2022/06/03 08:29:19;;;;;;;8.60;3.65;;;;;;;18.08;71.10;101280.38;7387764;19;20038;-67
2022/06/03 08:31:47;;;;;;;7.05;2.80;;;;;;;18.16;70.27;101282.91;7390197;19;20026;-68
2022/06/03 08:34:23;;;;;;;7.68;3.20;;;;;;;18.21;69.82;101289.31;7389636;19;20006;-67
2022/06/03 08:36:51;;;;;;;9.32;3.20;;;;;;;18.28;69.82;101284.88;7388720;19;20041;-69
2022/06/03 08:39:29;;;;;;;8.10;3.40;;;;;;;18.34;69.41;101289.41;7390055;19;20006;-67
2022/06/03 08:42:08;;;;;;;8.40;3.45;;;;;;;18.32;69.77;101294.13;7388815;19;20025;-66
2022/06/03 08:44:54;;;;;;;7.35;2.95;;;;;;;18.39;68.44;101292.31;7388849;19;20634;-69
2022/06/03 08:47:54;;;;;;;9.30;5.13;;;;;;;18.39;69.20;101294.97;7385561;19;20546;-68
2022/06/03 08:50:28;;;;;;;7.03;2.63;;;;;;;18.42;70.68;101296.47;7384837;19;20021;-68
2022/06/03 08:53:31;;;;;;;6.43;3.45;;;;;;;18.47;69.49;101298.53;7389980;19;20017;-68
2022/06/03 08:56:11;;;;;;;6.75;2.78;;;;;;;18.50;68.73;101293.63;7385495;19;20098;-68
2022/06/03 08:58:50;;;;;;;9.05;3.55;;;;;;;18.55;67.05;101288.59;7388468;19;20363;-67
2022/06/03 09:01:20;;;;;;;5.95;3.13;;;;;;;18.65;67.49;101291.72;7383471;19;20021;-70
2022/06/03 09:03:58;;;;;;;7.47;3.08;;;;;;;18.70;68.12;101297.31;7388986;19;20007;-68
2022/06/03 09:06:28;;;;;;;7.28;3.17;;;;;;;18.75;67.98;101302.88;7387987;19;20034;-67
2022/06/03 09:09:02;;;;;;;7.30;3.63;;;;;;;18.76;68.49;101304.53;7387258;19;20014;-68
2022/06/03 09:11:37;;;;;;;6.25;2.50;;;;;;;18.79;68.60;101296.13;7388174;19;20038;-67
2022/06/03 09:14:14;;;;;;;5.03;2.90;;;;;;;18.84;68.73;101302.75;7384380;19;20032;-67
2022/06/03 09:16:44;;;;;;;5.95;2.58;;;;;;;18.89;68.64;101303.00;7387319;19;20021;-68
2022/06/03 09:19:19;;;;;;;6.68;2.63;;;;;;;18.96;68.69;101304.66;7385693;19;20066;-69
2022/06/03 09:21:51;;;;;;;8.38;1.98;;;;;;;19.01;68.64;101302.22;7384818;19;20015;-68
2022/06/03 09:24:25;;;;;;;7.75;2.80;;;;;;;19.12;67.05;101306.19;7388007;19;20018;-67
2022/06/03 09:26:56;;;;;;;7.78;3.30;;;;;;;19.17;66.89;101309.09;7387492;19;20017;-69
2022/06/03 09:29:24;;;;;;;6.97;2.78;;;;;;;19.21;66.58;101307.69;7387011;19;20007;-70
2022/06/03 09:32:01;;;;;;;7.25;2.60;;;;;;;19.28;66.33;101297.88;7387759;19;20010;-67
2022/06/03 09:34:55;;;;;;;7.60;2.47;;;;;;;19.29;66.70;101296.03;7386082;19;20011;-67
2022/06/03 09:37:44;;;;;;;7.47;2.67;;;;;;;19.34;66.42;101285.59;7387149;19;20015;-67
2022/06/03 09:40:22;;;;;;;6.38;3.47;;;;;;;19.41;66.33;101289.09;7387819;19;20010;-67
2022/06/03 09:42:55;;;;;;;7.68;2.75;;;;;;;19.43;66.04;101284.38;7388444;19;20002;-67
2022/06/03 09:45:25;;;;;;;5.80;3.05;;;;;;;19.45;65.80;101283.22;7387029;19;20464;-67
2022/06/03 09:47:52;;;;;;;6.28;2.30;;;;;;;19.48;65.89;101282.78;7384535;19;20013;-68
2022/06/03 09:50:23;;;;;;;6.47;2.20;;;;;;;19.54;65.54;101291.84;7380538;19;20090;-68
2022/06/03 09:52:59;;;;;;;6.15;3.08;;;;;;;19.66;63.91;101279.56;7388125;19;20082;-68
2022/06/03 09:55:31;;;;;;;6.32;2.45;;;;;;;19.79;63.46;101298.31;7385127;19;20111;-67
2022/06/03 09:58:00;;;;;;;3.63;1.90;;;;;;;19.83;63.45;101294.19;7386478;19;20010;-68
2022/06/03 10:00:41;;;;;;;8.05;1.95;;;;;;;19.89;63.50;101297.91;7387067;19;20481;-67
2022/06/03 10:03:12;;;;;;;7.30;2.40;;;;;;;19.94;62.66;101298.13;7385538;19;20070;-68
2022/06/03 10:05:49;;;;;;;6.15;2.85;;;;;;;19.98;61.14;101297.50;7385349;19;20122;-65
2022/06/03 10:08:20;;;;;;;5.18;2.58;;;;;;;20.04;61.04;101301.22;7386748;19;20619;-69
2022/06/03 10:13:42;;;;;;;7.97;3.30;;;;;;;20.04;60.06;101296.72;7386643;19;20028;-67
2022/06/03 10:16:13;;;;;;;7.20;2.40;;;;;;;20.02;60.16;101290.72;7385935;19;20507;-69
2022/06/03 10:18:46;;;;;;;4.53;2.60;;;;;;;20.04;59.88;101291.38;7383975;19;20484;-69
2022/06/03 10:21:16;;;;;;;5.35;2.47;;;;;;;20.07;60.45;101290.94;7380816;19;20014;-68
2022/06/03 10:23:54;;;;;;;5.03;1.98;;;;;;;20.08;60.51;101303.28;7384616;19;20011;-68
2022/06/03 10:26:43;;;;;;;6.18;2.35;;;;;;;20.12;59.67;101302.88;7385565;19;20007;-66
2022/06/03 10:29:18;;;;;;;5.55;2.38;;;;;;;20.23;56.39;101311.13;7383776;19;20575;-69
2022/06/03 10:31:52;;;;;;;4.93;2.03;;;;;;;20.26;56.65;101301.88;7381094;19;20007;-67
2022/06/03 10:34:34;;;;;;;7.88;2.33;;;;;;;20.33;56.41;101295.53;7386289;19;20010;-68
2022/06/03 10:37:02;;;;;;;4.78;2.38;;;;;;;20.37;56.80;101296.75;7385228;19;20079;-68
2022/06/03 10:39:33;;;;;;;5.53;2.33;;;;;;;20.41;57.04;101295.34;7382983;19;20050;-67
2022/06/03 10:42:00;;;;;;;4.32;1.80;;;;;;;20.41;57.62;101287.31;7385957;19;20030;-69
2022/06/03 10:44:33;;;;;;;5.60;2.05;;;;;;;20.43;57.69;101287.09;7384833;19;20007;-68
2022/06/03 10:47:04;;;;;;;6.13;1.90;;;;;;;20.40;58.30;101285.66;7383765;19;20085;-69
2022/06/03 10:49:36;;;;;;;17.92;9.07;;;;;;;20.38;59.49;101286.88;7383289;19;20047;-67
2022/06/03 11:06:36;;;;;;;5.80;1.90;;;;;;;20.57;55.47;101277.25;7383786;19;20018;-69
2022/06/03 11:09:06;;;;;;;4.15;2.10;;;;;;;20.61;53.92;101276.63;7382960;19;20011;-68
2022/06/03 11:12:00;;;;;;;4.57;1.95;;;;;;;20.65;54.32;101271.66;7381083;19;20494;-69
2022/06/03 11:14:40;;;;;;;5.15;1.60;;;;;;;20.72;53.79;101265.28;7380209;19;20010;-68
2022/06/03 11:17:18;;;;;;;4.65;1.50;;;;;;;20.76;53.51;101269.19;7382929;19;20023;-69
2022/06/03 11:20:03;;;;;;;4.88;1.23;;;;;;;20.81;53.50;101274.72;7380398;19;20092;-68
2022/06/03 11:22:32;;;;;;;3.80;1.45;;;;;;;20.87;53.39;101270.41;7375804;19;20434;-69
2022/06/03 11:25:25;;;;;;;8.07;2.35;;;;;;;20.86;53.19;101269.56;7383591;19;20710;-68
2022/06/03 11:28:13;;;;;;;5.90;2.28;;;;;;;20.87;52.34;101273.91;7382911;19;21631;-67
2022/06/03 11:30:55;;;;;;;4.53;1.70;;;;;;;20.96;50.38;101265.63;7384028;19;20034;-70
2022/06/03 11:33:56;;;;;;;4.43;1.65;;;;;;;20.95;50.02;101266.66;7381971;19;20015;-65
2022/06/03 11:36:32;;;;;;;4.43;1.50;;;;;;;20.96;50.39;101262.97;7380632;19;20697;-68
2022/06/03 11:39:04;;;;;;;6.57;2.38;;;;;;;20.99;49.20;101249.13;7383558;19;20738;-68
2022/06/03 11:41:41;;;;;;;5.83;1.50;;;;;;;21.03;48.62;101266.44;7384717;19;20010;-68
2022/06/03 11:44:29;;;;;;;5.15;2.17;;;;;;;21.08;47.83;101272.78;7383066;19;20011;-66
2022/06/03 11:47:05;;;;;;;5.53;1.65;;;;;;;21.10;47.42;101267.22;7380503;19;20551;-67
2022/06/03 11:49:33;;;;;;;6.05;1.63;;;;;;;21.18;46.67;101267.06;7383771;19;20663;-69
2022/06/03 11:52:06;;;;;;;6.22;1.50;;;;;;;21.15;47.03;101262.91;7381930;19;20022;-68
2022/06/03 11:54:34;;;;;;;2.78;1.02;;;;;;;21.13;47.04;101269.50;7381421;19;20007;-69
2022/06/03 11:57:02;;;;;;;3.22;1.02;;;;;;;21.14;46.16;101269.31;7376737;19;20694;-68
2022/06/03 11:59:44;;;;;;;4.55;1.10;;;;;;;21.23;43.51;101272.59;7376183;19;20030;-67
2022/06/03 12:02:19;;;;;;;2.40;0.85;;;;;;;21.27;42.90;101271.13;7383905;19;20014;-68
2022/06/03 12:04:58;;;;;;;3.33;1.00;;;;;;;21.31;43.29;101275.84;7380722;19;20015;-68
2022/06/03 12:07:48;;;;;;;4.95;1.10;;;;;;;21.36;43.59;101279.72;7383023;19;20014;-69
2022/06/03 12:10:25;;;;;;;3.38;1.00;;;;;;;21.37;42.74;101274.16;7380214;19;20014;-66
2022/06/03 12:13:31;;;;;;;2.38;0.85;;;;;;;21.38;42.74;101272.31;7382026;19;20016;-68
2022/06/03 12:16:02;;;;;;;4.93;1.50;;;;;;;21.40;42.62;101268.38;7374991;19;20018;-68
2022/06/03 12:18:32;;;;;;;5.63;1.40;;;;;;;21.39;43.16;101274.75;7379757;19;20429;-68
2022/06/03 12:21:01;;;;;;;2.05;1.00;;;;;;;21.41;43.11;101272.72;7377831;19;20126;-69
2022/06/03 12:23:36;;;;;;;2.00;0.95;;;;;;;21.51;42.44;101272.25;7376044;19;20017;-67
2022/06/03 12:26:23;;;;;;;3.15;1.15;;;;;;;21.60;42.58;101263.75;7381001;19;20015;-67
2022/06/03 12:28:56;;;;;;;3.97;1.73;;;;;;;21.63;43.20;101266.00;7381934;19;20021;-67
2022/06/03 12:31:44;;;;;;;1.90;1.05;;;;;;;21.64;43.63;101259.59;7381578;19;20088;-66
2022/06/03 12:34:20;;;;;;;2.17;0.88;;;;;;;21.69;42.99;101265.13;7382847;19;20367;-68
2022/06/03 12:36:53;;;;;;;4.35;1.00;;;;;;;21.73;42.69;101265.53;7388040;19;20110;-67
2022/06/03 12:39:22;;;;;;;5.90;1.35;;;;;;;21.80;43.89;101258.28;7389811;19;20531;-70
2022/06/03 12:41:48;;;;;;;4.95;2.15;;;;;;;21.86;44.11;101268.13;7390777;19;20011;-67
2022/06/03 12:44:36;;;;;;;3.17;1.60;;;;;;;21.87;43.64;101264.41;7387108;19;20036;-67
2022/06/03 12:47:18;;;;;;;4.10;1.25;;;;;;;21.91;44.41;101256.75;7384941;19;20018;-68
2022/06/03 12:49:45;;;;;;;4.55;1.83;;;;;;;21.96;44.46;101257.78;7385044;19;20023;-67
2022/06/03 12:52:27;;;;;;;7.70;1.85;;;;;;;22.00;44.01;101247.44;7387541;19;20119;-66
2022/06/03 12:55:06;;;;;;;3.85;1.38;;;;;;;22.03;44.96;101255.88;7387406;19;20099;-68
2022/06/03 12:57:47;;;;;;;6.15;1.55;;;;;;;;;;7386840;19;20489;-68
2022/06/03 13:00:36;;;;;;;4.28;1.75;;;;;;;22.18;43.38;101264.44;7389013;19;20740;-68
2022/06/03 13:03:06;;;;;;;4.53;1.33;;;;;;;22.15;43.26;101259.50;7386521;19;20042;-66
2022/06/03 13:05:39;;;;;;;3.00;1.50;;;;;;;22.14;43.67;101267.78;7388680;19;20338;-67
2022/06/03 13:08:28;;;;;;;4.57;1.60;;;;;;;22.13;43.83;101274.16;7386431;19;20016;-67